createdAt,value
2023-03-31T00:00:40.769Z,989.6
2023-03-31T00:01:41.950Z,989.6
2023-03-31T00:02:43.237Z,989.6
2023-03-31T00:03:45.561Z,989.6
2023-03-31T00:04:47.305Z,989.5
2023-03-31T00:05:48.458Z,989.5
2023-03-31T00:06:49.433Z,989.6
2023-03-31T00:07:50.696Z,989.6
2023-03-31T00:08:52.728Z,989.6
2023-03-31T00:10:16.358Z,989.6
2023-03-31T00:11:19.601Z,989.6
2023-03-31T00:12:20.574Z,989.6
2023-03-31T00:13:21.741Z,989.6
2023-03-31T00:14:22.710Z,989.6
2023-03-31T00:15:23.682Z,989.6
2023-03-31T00:16:25.001Z,989.6
2023-03-31T00:17:26.104Z,989.6
2023-03-31T00:18:27.274Z,989.6
2023-03-31T00:19:28.434Z,989.5
2023-03-31T00:20:29.613Z,989.5
2023-03-31T00:21:30.766Z,989.6
2023-03-31T00:22:31.933Z,989.6
2023-03-31T00:23:33.127Z,989.5
2023-03-31T00:24:34.230Z,989.5
2023-03-31T00:25:35.404Z,989.5
2023-03-31T00:26:36.302Z,989.5
2023-03-31T00:27:37.442Z,989.4
2023-03-31T00:28:38.614Z,989.4
2023-03-31T00:29:39.779Z,989.4
2023-03-31T00:30:40.937Z,989.4
2023-03-31T00:31:42.065Z,989.4
2023-03-31T00:32:43.337Z,989.4
2023-03-31T00:33:44.282Z,989.3
2023-03-31T00:34:45.252Z,989.3
2023-03-31T00:35:46.271Z,989.2
2023-03-31T00:36:47.341Z,989.2
2023-03-31T00:37:48.757Z,989.2
2023-03-31T00:38:49.943Z,989.2
2023-03-31T00:39:50.985Z,989.2
2023-03-31T00:40:54.104Z,989.2
2023-03-31T00:41:55.331Z,989.2
2023-03-31T00:42:56.509Z,989.1
2023-03-31T00:43:57.521Z,989.1
2023-03-31T00:44:58.879Z,989.1
2023-03-31T00:45:59.726Z,989.1
2023-03-31T00:47:01.012Z,989.1
2023-03-31T00:48:02.193Z,989.2
2023-03-31T00:49:03.151Z,989.2
2023-03-31T00:50:04.327Z,989.2
2023-03-31T00:51:05.492Z,989.1
2023-03-31T00:52:06.783Z,989.2
2023-03-31T00:53:07.953Z,989.2
2023-03-31T00:54:09.013Z,989.1
2023-03-31T00:55:10.166Z,989.1
2023-03-31T00:56:11.332Z,989.1
2023-03-31T00:57:12.518Z,989.1
2023-03-31T00:58:13.767Z,989.1
2023-03-31T00:59:14.984Z,989.1
2023-03-31T01:00:16.118Z,989.1
2023-03-31T01:01:17.036Z,989.1
2023-03-31T01:02:18.269Z,989.1
2023-03-31T01:03:19.378Z,989
2023-03-31T01:04:20.399Z,989
2023-03-31T01:05:26.383Z,989
2023-03-31T01:06:27.546Z,988.9
2023-03-31T01:07:28.708Z,988.9
2023-03-31T01:08:29.685Z,988.9
2023-03-31T01:09:30.872Z,988.9
2023-03-31T01:10:32.056Z,988.9
2023-03-31T01:11:33.222Z,988.9
2023-03-31T01:12:34.391Z,988.9
2023-03-31T01:13:35.550Z,988.9
2023-03-31T01:14:36.743Z,988.9
2023-03-31T01:15:37.886Z,988.9
2023-03-31T01:16:39.068Z,988.9
2023-03-31T01:17:40.366Z,988.8
2023-03-31T01:18:41.931Z,988.9
2023-03-31T01:19:43.120Z,988.8
2023-03-31T01:20:44.092Z,988.8
2023-03-31T01:21:45.257Z,988.8
2023-03-31T01:22:46.308Z,988.8
2023-03-31T01:23:47.474Z,988.8
2023-03-31T01:24:48.673Z,988.8
2023-03-31T01:25:49.690Z,988.8
2023-03-31T01:26:50.866Z,988.7
2023-03-31T01:27:52.027Z,988.7
2023-03-31T01:28:53.118Z,988.7
2023-03-31T01:29:54.085Z,988.7
2023-03-31T01:30:55.066Z,988.7
2023-03-31T01:31:56.312Z,988.7
2023-03-31T01:32:57.531Z,988.7
2023-03-31T01:33:58.583Z,988.7
2023-03-31T01:34:59.601Z,988.7
2023-03-31T01:36:00.790Z,988.7
2023-03-31T01:37:02.084Z,988.7
2023-03-31T01:38:03.261Z,988.7
2023-03-31T01:39:04.414Z,988.6
2023-03-31T01:40:05.612Z,988.6
2023-03-31T01:41:06.761Z,988.6
2023-03-31T01:42:07.757Z,988.6
2023-03-31T01:43:08.921Z,988.6
2023-03-31T01:44:10.224Z,988.6
2023-03-31T01:45:11.248Z,988.6
2023-03-31T01:46:12.863Z,988.6
2023-03-31T01:47:14.007Z,988.6
2023-03-31T01:48:14.784Z,988.6
2023-03-31T01:49:15.790Z,988.6
2023-03-31T01:50:16.957Z,988.6
2023-03-31T01:51:18.133Z,988.6
2023-03-31T01:52:19.449Z,988.5
2023-03-31T01:53:20.733Z,988.6
2023-03-31T01:54:21.701Z,988.6
2023-03-31T01:55:22.708Z,988.6
2023-03-31T01:56:23.769Z,988.6
2023-03-31T01:57:24.931Z,988.5
2023-03-31T01:58:26.086Z,988.5
2023-03-31T01:59:27.261Z,988.5
2023-03-31T02:00:28.417Z,988.4
2023-03-31T02:01:31.327Z,988.4
2023-03-31T02:02:32.981Z,988.4
2023-03-31T02:03:34.648Z,988.4
2023-03-31T02:04:36.062Z,988.4
2023-03-31T02:05:37.230Z,988.3
2023-03-31T02:06:38.201Z,988.3
2023-03-31T02:07:39.368Z,988.3
2023-03-31T02:08:40.531Z,988.3
2023-03-31T02:09:41.698Z,988.3
2023-03-31T02:10:42.900Z,988.2
2023-03-31T02:11:43.858Z,988.2
2023-03-31T02:12:45.021Z,988.2
2023-03-31T02:13:46.188Z,988.2
2023-03-31T02:14:47.507Z,988.2
2023-03-31T02:15:48.702Z,988.2
2023-03-31T02:16:50.038Z,988.2
2023-03-31T02:17:51.656Z,988.2
2023-03-31T02:18:52.299Z,988.2
2023-03-31T02:19:53.541Z,988.2
2023-03-31T02:20:54.591Z,988.1
2023-03-31T02:21:55.572Z,988.1
2023-03-31T02:22:56.747Z,988.1
2023-03-31T02:23:57.907Z,988.1
2023-03-31T02:24:59.067Z,988.1
2023-03-31T02:26:00.117Z,988.1
2023-03-31T02:27:01.281Z,988.1
2023-03-31T02:28:02.086Z,988.1
2023-03-31T02:29:03.249Z,988.1
2023-03-31T02:30:04.416Z,988.1
2023-03-31T02:31:05.720Z,988.1
2023-03-31T02:32:06.744Z,988.1
2023-03-31T02:33:08.164Z,988.1
2023-03-31T02:34:09.233Z,988
2023-03-31T02:35:10.383Z,988
2023-03-31T02:36:11.766Z,988
2023-03-31T02:37:12.701Z,988
2023-03-31T02:38:13.857Z,988
2023-03-31T02:39:15.024Z,988
2023-03-31T02:40:15.834Z,987.9
2023-03-31T02:41:16.670Z,988
2023-03-31T02:42:17.819Z,987.9
2023-03-31T02:43:18.982Z,987.9
2023-03-31T02:44:20.149Z,987.9
2023-03-31T02:45:21.312Z,987.9
2023-03-31T02:46:22.363Z,987.9
2023-03-31T02:47:23.996Z,987.8
2023-03-31T02:48:25.160Z,987.8
2023-03-31T02:49:26.328Z,987.8
2023-03-31T02:50:27.293Z,987.8
2023-03-31T02:51:28.270Z,987.7
2023-03-31T02:52:29.276Z,987.7
2023-03-31T02:53:30.254Z,987.7
2023-03-31T02:54:31.415Z,987.6
2023-03-31T02:55:32.423Z,987.7
2023-03-31T02:56:33.616Z,987.6
2023-03-31T02:57:34.642Z,987.6
2023-03-31T02:58:35.804Z,987.6
2023-03-31T02:59:36.985Z,987.5
2023-03-31T03:00:38.136Z,987.5
2023-03-31T03:01:39.528Z,987.5
2023-03-31T03:02:41.023Z,987.5
2023-03-31T03:03:42.427Z,987.5
2023-03-31T03:04:43.395Z,987.5
2023-03-31T03:05:44.558Z,987.5
2023-03-31T03:06:45.730Z,987.5
2023-03-31T03:07:46.893Z,987.5
2023-03-31T03:08:48.054Z,987.5
2023-03-31T03:09:49.225Z,987.4
2023-03-31T03:10:50.186Z,987.4
2023-03-31T03:11:51.222Z,987.4
2023-03-31T03:12:52.325Z,987.4
2023-03-31T03:13:53.289Z,987.4
2023-03-31T03:14:54.484Z,987.4
2023-03-31T03:15:55.673Z,987.4
2023-03-31T03:16:57.009Z,987.4
2023-03-31T03:17:58.338Z,987.4
2023-03-31T03:18:59.523Z,987.4
2023-03-31T03:20:00.559Z,987.4
2023-03-31T03:21:01.613Z,987.4
2023-03-31T03:22:02.570Z,987.4
2023-03-31T03:23:03.741Z,987.4
2023-03-31T03:24:04.900Z,987.4
2023-03-31T03:25:05.913Z,987.3
2023-03-31T03:26:07.481Z,987.3
2023-03-31T03:27:08.929Z,987.3
2023-03-31T03:28:09.747Z,987.3
2023-03-31T03:29:10.716Z,987.3
2023-03-31T03:30:11.882Z,987.3
2023-03-31T03:31:13.074Z,987.3
2023-03-31T03:32:14.217Z,987.3
2023-03-31T03:33:16.420Z,987.2
2023-03-31T03:34:17.198Z,987.3
2023-03-31T03:35:18.387Z,987.3
2023-03-31T03:36:19.437Z,987.3
2023-03-31T03:37:20.856Z,987.3
2023-03-31T03:38:22.029Z,987.3
2023-03-31T03:39:23.193Z,987.3
2023-03-31T03:40:24.354Z,987.3
2023-03-31T03:41:25.139Z,987.3
2023-03-31T03:42:26.316Z,987.3
2023-03-31T03:43:27.462Z,987.2
2023-03-31T03:44:28.424Z,987.2
2023-03-31T03:45:29.590Z,987.2
2023-03-31T03:46:30.861Z,987.2
2023-03-31T03:47:31.831Z,987.2
2023-03-31T03:48:32.788Z,987.2
2023-03-31T03:49:33.559Z,987.2
2023-03-31T03:50:34.734Z,987.2
2023-03-31T03:51:35.898Z,987.2
2023-03-31T03:52:37.052Z,987.2
2023-03-31T03:53:38.221Z,987.2
2023-03-31T03:54:39.201Z,987.2
2023-03-31T03:55:40.349Z,987.1
2023-03-31T03:56:41.519Z,987.1
2023-03-31T03:57:42.840Z,987.1
2023-03-31T03:58:43.980Z,987.1
2023-03-31T03:59:45.003Z,987.1
2023-03-31T04:00:46.014Z,987.1
2023-03-31T04:01:47.207Z,987.1
2023-03-31T04:02:48.491Z,987
2023-03-31T04:03:49.636Z,987
2023-03-31T04:04:50.948Z,987
2023-03-31T04:05:52.117Z,986.9
2023-03-31T04:06:53.284Z,986.9
2023-03-31T04:07:54.252Z,986.9
2023-03-31T04:08:55.428Z,986.8
2023-03-31T04:09:56.581Z,986.8
2023-03-31T04:10:57.549Z,986.8
2023-03-31T04:11:58.716Z,986.8
2023-03-31T04:12:59.902Z,986.7
2023-03-31T04:14:01.048Z,986.7
2023-03-31T04:15:02.223Z,986.7
2023-03-31T04:16:03.421Z,986.7
2023-03-31T04:17:04.681Z,986.6
2023-03-31T04:18:05.745Z,986.6
2023-03-31T04:19:06.982Z,986.6
2023-03-31T04:20:08.145Z,986.6
2023-03-31T04:21:09.325Z,986.5
2023-03-31T04:22:10.316Z,986.5
2023-03-31T04:23:11.482Z,986.5
2023-03-31T04:24:12.650Z,986.5
2023-03-31T04:25:13.816Z,986.5
2023-03-31T04:26:14.979Z,986.5
2023-03-31T04:27:16.143Z,986.5
2023-03-31T04:28:17.136Z,986.4
2023-03-31T04:29:18.277Z,986.4
2023-03-31T04:30:19.444Z,986.4
2023-03-31T04:31:20.724Z,986.4
2023-03-31T04:32:21.752Z,986.3
2023-03-31T04:33:22.928Z,986.3
2023-03-31T04:34:24.086Z,986.3
2023-03-31T04:35:25.173Z,986.3
2023-03-31T04:36:26.494Z,986.3
2023-03-31T04:37:27.654Z,986.3
2023-03-31T04:38:28.825Z,986.3
2023-03-31T04:39:29.841Z,986.2
2023-03-31T04:40:31.005Z,986.1
2023-03-31T04:41:32.174Z,986.1
2023-03-31T04:42:33.263Z,986
2023-03-31T04:43:34.461Z,986
2023-03-31T04:44:35.663Z,986
2023-03-31T04:45:36.940Z,985.9
2023-03-31T04:46:38.098Z,985.9
2023-03-31T04:47:39.482Z,985.9
2023-03-31T04:48:41.034Z,985.9
2023-03-31T04:49:42.203Z,985.9
2023-03-31T04:50:43.208Z,985.9
2023-03-31T04:51:44.214Z,985.8
2023-03-31T04:52:45.391Z,985.8
2023-03-31T04:53:46.552Z,985.8
2023-03-31T04:54:47.357Z,985.7
2023-03-31T04:55:48.525Z,985.7
2023-03-31T04:56:49.555Z,985.7
2023-03-31T04:57:50.807Z,985.6
2023-03-31T04:58:51.813Z,985.6
2023-03-31T04:59:52.762Z,985.6
2023-03-31T05:00:53.948Z,985.6
2023-03-31T05:01:55.122Z,985.6
2023-03-31T05:02:56.354Z,985.6
2023-03-31T05:03:57.317Z,985.5
2023-03-31T05:04:58.138Z,985.5
2023-03-31T05:05:59.105Z,985.5
2023-03-31T05:07:00.296Z,985.4
2023-03-31T05:08:01.471Z,985.4
2023-03-31T05:09:02.627Z,985.4
2023-03-31T05:10:03.442Z,985.4
2023-03-31T05:11:04.607Z,985.3
2023-03-31T05:12:05.580Z,985.3
2023-03-31T05:13:06.736Z,985.3
2023-03-31T05:14:08.154Z,985.3
2023-03-31T05:15:09.478Z,985.2
2023-03-31T05:16:10.861Z,985.2
2023-03-31T05:17:12.107Z,985.2
2023-03-31T05:18:13.269Z,985.2
2023-03-31T05:19:14.254Z,985.2
2023-03-31T05:20:15.407Z,985.2
2023-03-31T05:21:16.576Z,985.2
2023-03-31T05:22:17.740Z,985.2
2023-03-31T05:23:18.745Z,985.1
2023-03-31T05:24:19.909Z,985.1
2023-03-31T05:25:21.076Z,985.1
2023-03-31T05:26:22.242Z,985.1
2023-03-31T05:27:23.414Z,985
2023-03-31T05:28:24.372Z,985
2023-03-31T05:29:25.565Z,985
2023-03-31T05:30:26.773Z,984.9
2023-03-31T05:31:27.979Z,984.9
2023-03-31T05:32:29.149Z,984.9
2023-03-31T05:33:30.387Z,984.9
2023-03-31T05:34:31.559Z,984.9
2023-03-31T05:35:32.878Z,984.8
2023-03-31T05:36:33.719Z,984.8
2023-03-31T05:37:34.884Z,984.8
2023-03-31T05:38:36.056Z,984.7
2023-03-31T05:39:37.025Z,984.8
2023-03-31T05:40:38.193Z,984.8
2023-03-31T05:41:39.217Z,984.8
2023-03-31T05:42:40.376Z,984.8
2023-03-31T05:43:41.538Z,984.8
2023-03-31T05:44:42.732Z,984.8
2023-03-31T05:45:43.685Z,984.8
2023-03-31T05:46:46.829Z,984.8
2023-03-31T05:47:48.460Z,984.8
2023-03-31T05:48:49.518Z,984.8
2023-03-31T05:49:50.495Z,984.8
2023-03-31T05:50:51.673Z,984.8
2023-03-31T05:51:52.831Z,984.8
2023-03-31T05:52:53.996Z,984.7
2023-03-31T05:53:54.967Z,984.7
2023-03-31T05:54:55.968Z,984.8
2023-03-31T05:55:57.008Z,984.8
2023-03-31T05:56:57.925Z,984.8
2023-03-31T05:57:59.104Z,984.8
2023-03-31T05:59:00.076Z,984.8
2023-03-31T06:00:01.280Z,984.9
2023-03-31T06:01:02.572Z,984.9
2023-03-31T06:02:03.706Z,984.9
2023-03-31T06:03:05.012Z,984.9
2023-03-31T06:04:06.461Z,984.9
2023-03-31T06:05:07.485Z,984.9
2023-03-31T06:06:08.655Z,984.9
2023-03-31T06:07:09.497Z,984.9
2023-03-31T06:08:10.712Z,984.8
2023-03-31T06:09:11.878Z,984.8
2023-03-31T06:10:12.654Z,984.8
2023-03-31T06:11:13.634Z,984.8
2023-03-31T06:12:14.788Z,984.8
2023-03-31T06:13:15.765Z,984.9
2023-03-31T06:14:16.949Z,984.9
2023-03-31T06:15:18.115Z,984.9
2023-03-31T06:16:19.465Z,984.9
2023-03-31T06:17:20.547Z,984.9
2023-03-31T06:18:21.618Z,984.9
2023-03-31T06:19:22.655Z,984.8
2023-03-31T06:20:28.853Z,984.8
2023-03-31T06:21:30.144Z,984.8
2023-03-31T06:22:31.333Z,984.7
2023-03-31T06:23:32.514Z,984.7
2023-03-31T06:24:33.660Z,984.7
2023-03-31T06:25:51.599Z,984.6
2023-03-31T06:26:54.423Z,984.6
2023-03-31T06:27:55.574Z,984.6
2023-03-31T06:28:56.743Z,984.5
2023-03-31T06:29:57.909Z,984.5
2023-03-31T06:30:59.100Z,984.4
2023-03-31T06:32:00.413Z,984.4
2023-03-31T06:33:01.553Z,984.4
2023-03-31T06:34:02.760Z,984.3
2023-03-31T06:35:03.784Z,984.3
2023-03-31T06:36:04.962Z,984.2
2023-03-31T06:37:05.931Z,984.2
2023-03-31T06:38:07.104Z,984.2
2023-03-31T06:39:08.263Z,984.1
2023-03-31T06:40:09.428Z,984.1
2023-03-31T06:41:10.610Z,984.1
2023-03-31T06:42:11.770Z,984.1
2023-03-31T06:43:12.927Z,984
2023-03-31T06:44:14.090Z,984.1
2023-03-31T06:45:15.261Z,984.1
2023-03-31T06:46:16.525Z,984.1
2023-03-31T06:47:17.894Z,984.1
2023-03-31T06:48:19.064Z,984.1
2023-03-31T06:49:20.233Z,984.1
2023-03-31T06:50:21.401Z,984.1
2023-03-31T06:51:22.554Z,984.1
2023-03-31T06:52:23.724Z,984.1
2023-03-31T06:53:24.887Z,984.1
2023-03-31T06:54:26.053Z,984.1
2023-03-31T06:55:27.222Z,984.1
2023-03-31T06:56:28.305Z,984.1
2023-03-31T06:57:29.884Z,984.1
2023-03-31T06:58:32.318Z,984.1
2023-03-31T06:59:33.473Z,984
2023-03-31T07:00:34.640Z,984
2023-03-31T07:01:35.951Z,984
2023-03-31T07:02:37.496Z,984.1
2023-03-31T07:03:38.945Z,984.1
2023-03-31T07:04:40.354Z,984.1
2023-03-31T07:05:41.517Z,984.1
2023-03-31T07:06:42.684Z,984.1
2023-03-31T07:07:46.560Z,984.1
2023-03-31T07:08:47.803Z,984.1
2023-03-31T07:09:48.949Z,984.1
2023-03-31T07:10:50.119Z,984.1
2023-03-31T07:11:51.285Z,984.1
2023-03-31T07:12:52.478Z,984.1
2023-03-31T07:13:53.617Z,984.2
2023-03-31T07:14:54.781Z,984.2
2023-03-31T07:15:56.018Z,984.2
2023-03-31T07:16:57.348Z,984.1
2023-03-31T07:17:58.577Z,984.2
2023-03-31T07:18:59.803Z,984.2
2023-03-31T07:20:00.981Z,984.1
2023-03-31T07:21:02.170Z,984.1
2023-03-31T07:22:03.295Z,984.1
2023-03-31T07:23:04.470Z,984.1
2023-03-31T07:24:05.626Z,984.1
2023-03-31T07:25:06.801Z,984.1
2023-03-31T07:27:08.527Z,984.1
2023-03-31T07:28:09.692Z,984.1
2023-03-31T07:29:10.892Z,984.1
2023-03-31T07:30:12.027Z,984
2023-03-31T07:31:13.300Z,984
2023-03-31T07:32:14.587Z,984
2023-03-31T07:33:16.147Z,984
2023-03-31T07:34:17.381Z,984
2023-03-31T07:35:18.547Z,984
2023-03-31T07:36:20.713Z,984
2023-03-31T07:37:22.966Z,984
2023-03-31T07:38:24.133Z,984
2023-03-31T07:39:25.300Z,984
2023-03-31T07:40:26.603Z,983.9
2023-03-31T07:41:28.003Z,983.9
2023-03-31T07:42:29.204Z,983.9
2023-03-31T07:43:30.378Z,983.9
2023-03-31T07:44:31.519Z,983.9
2023-03-31T07:45:32.676Z,983.9
2023-03-31T07:46:34.014Z,983.9
2023-03-31T07:47:35.224Z,983.9
2023-03-31T07:48:36.570Z,983.8
2023-03-31T07:49:37.791Z,983.7
2023-03-31T07:50:38.960Z,983.7
2023-03-31T07:51:40.119Z,983.7
2023-03-31T07:52:44.198Z,983.7
2023-03-31T07:53:48.069Z,983.7
2023-03-31T07:54:49.236Z,983.8
2023-03-31T07:55:50.205Z,983.8
2023-03-31T07:56:51.468Z,983.7
2023-03-31T07:57:52.620Z,983.8
2023-03-31T07:58:58.025Z,983.7
2023-03-31T07:59:59.229Z,983.7
2023-03-31T08:01:00.399Z,983.7
2023-03-31T08:02:01.699Z,983.7
2023-03-31T08:03:03.320Z,983.8
2023-03-31T08:04:04.571Z,983.7
2023-03-31T08:05:05.764Z,983.7
2023-03-31T08:06:07.295Z,983.7
2023-03-31T08:07:08.948Z,983.7
2023-03-31T08:08:09.973Z,983.7
2023-03-31T08:09:11.147Z,983.7
2023-03-31T08:10:12.302Z,983.7
2023-03-31T08:11:13.469Z,983.7
2023-03-31T08:12:14.651Z,983.7
2023-03-31T08:13:15.902Z,983.7
2023-03-31T08:14:34.405Z,983.7
2023-03-31T08:15:42.505Z,983.6
2023-03-31T08:16:43.745Z,983.6
2023-03-31T08:17:44.833Z,983.6
2023-03-31T08:18:45.858Z,983.5
2023-03-31T08:19:47.011Z,983.5
2023-03-31T08:20:49.795Z,983.5
2023-03-31T08:21:50.956Z,983.5
2023-03-31T08:22:52.137Z,983.4
2023-03-31T08:23:53.362Z,983.4
2023-03-31T08:24:54.529Z,983.4
2023-03-31T08:25:55.697Z,983.4
2023-03-31T08:26:56.859Z,983.3
2023-03-31T08:27:57.882Z,983.3
2023-03-31T08:28:59.058Z,983.3
2023-03-31T08:30:00.222Z,983.2
2023-03-31T08:31:01.385Z,983.2
2023-03-31T08:32:02.790Z,983.2
2023-03-31T08:33:04.043Z,983.2
2023-03-31T08:34:05.160Z,983.2
2023-03-31T08:35:06.319Z,983.2
2023-03-31T08:36:08.005Z,983.1
2023-03-31T08:37:09.367Z,983.1
2023-03-31T08:38:10.577Z,983.1
2023-03-31T08:39:11.731Z,983.1
2023-03-31T08:40:12.889Z,983.1
2023-03-31T08:41:14.063Z,983.1
2023-03-31T08:42:16.570Z,983.1
2023-03-31T08:43:17.570Z,983.1
2023-03-31T08:44:18.736Z,983
2023-03-31T08:45:19.902Z,983
2023-03-31T08:46:21.109Z,983
2023-03-31T08:47:21.915Z,983
2023-03-31T08:48:23.132Z,983
2023-03-31T08:49:24.389Z,983
2023-03-31T08:50:25.551Z,982.9
2023-03-31T08:51:26.732Z,982.9
2023-03-31T08:52:27.900Z,982.8
2023-03-31T08:53:28.707Z,982.8
2023-03-31T08:54:29.870Z,982.7
2023-03-31T08:55:30.904Z,982.7
2023-03-31T08:56:32.053Z,982.6
2023-03-31T08:57:33.379Z,982.6
2023-03-31T08:58:34.524Z,982.6
2023-03-31T08:59:35.694Z,982.6
2023-03-31T09:00:36.855Z,982.6
2023-03-31T09:01:55.888Z,982.6
2023-03-31T09:02:58.298Z,982.6
2023-03-31T09:04:00.266Z,982.6
2023-03-31T09:05:01.806Z,982.5
2023-03-31T09:06:02.936Z,982.5
2023-03-31T09:07:04.098Z,982.5
2023-03-31T09:08:05.261Z,982.5
2023-03-31T09:09:06.426Z,982.5
2023-03-31T09:10:07.605Z,982.5
2023-03-31T09:11:08.780Z,982.5
2023-03-31T09:12:09.942Z,982.5
2023-03-31T09:13:11.111Z,982.5
2023-03-31T09:14:12.288Z,982.5
2023-03-31T09:15:16.446Z,982.5
2023-03-31T09:16:17.719Z,982.5
2023-03-31T09:17:18.866Z,982.5
2023-03-31T09:18:20.109Z,982.5
2023-03-31T09:19:21.282Z,982.5
2023-03-31T09:20:22.467Z,982.5
2023-03-31T09:21:23.606Z,982.5
2023-03-31T09:22:24.775Z,982.5
2023-03-31T09:23:25.944Z,982.5
2023-03-31T09:24:27.230Z,982.5
2023-03-31T09:25:29.169Z,982.5
2023-03-31T09:26:30.331Z,982.4
2023-03-31T09:27:31.496Z,982.4
2023-03-31T09:28:32.663Z,982.4
2023-03-31T09:29:33.829Z,982.4
2023-03-31T09:30:34.998Z,982.3
2023-03-31T09:31:36.293Z,982.3
2023-03-31T09:32:37.454Z,982.3
2023-03-31T09:33:38.741Z,982.2
2023-03-31T09:34:39.914Z,982.2
2023-03-31T09:35:41.123Z,982.2
2023-03-31T09:36:43.782Z,982.2
2023-03-31T09:37:44.956Z,982.2
2023-03-31T09:38:46.117Z,982.1
2023-03-31T09:39:47.279Z,982.1
2023-03-31T09:40:48.453Z,982.2
2023-03-31T09:41:49.426Z,982.2
2023-03-31T09:42:50.596Z,982.2
2023-03-31T09:43:51.776Z,982.2
2023-03-31T09:44:52.943Z,982.2
2023-03-31T09:46:15.350Z,982.2
2023-03-31T09:47:16.849Z,982.2
2023-03-31T09:48:18.267Z,982.2
2023-03-31T09:49:19.436Z,982.2
2023-03-31T09:50:25.751Z,982.1
2023-03-31T09:51:27.325Z,982.1
2023-03-31T09:52:28.462Z,982.1
2023-03-31T09:53:29.621Z,982.1
2023-03-31T09:54:30.793Z,982.1
2023-03-31T09:55:40.544Z,982
2023-03-31T09:56:41.722Z,982
2023-03-31T09:57:42.890Z,982
2023-03-31T09:58:43.859Z,982
2023-03-31T09:59:44.900Z,982
2023-03-31T10:00:46.067Z,981.9
2023-03-31T10:01:47.250Z,981.9
2023-03-31T10:02:48.086Z,981.9
2023-03-31T10:03:49.416Z,981.9
2023-03-31T10:04:50.639Z,981.9
2023-03-31T10:05:51.803Z,981.9
2023-03-31T10:06:53.000Z,981.9
2023-03-31T10:07:54.238Z,981.9
2023-03-31T10:08:55.402Z,981.9
2023-03-31T10:09:56.572Z,981.9
2023-03-31T10:10:57.735Z,981.9
2023-03-31T10:11:58.902Z,982
2023-03-31T10:13:00.136Z,982
2023-03-31T10:14:01.224Z,982
2023-03-31T10:15:02.428Z,982
2023-03-31T10:16:03.642Z,982
2023-03-31T10:17:04.963Z,982
2023-03-31T10:18:06.149Z,982
2023-03-31T10:19:07.433Z,982.1
2023-03-31T10:20:08.412Z,982.1
2023-03-31T10:21:09.646Z,982.1
2023-03-31T10:22:10.830Z,982.1
2023-03-31T10:23:12.785Z,982.1
2023-03-31T10:24:13.952Z,982.1
2023-03-31T10:25:14.921Z,982.1
2023-03-31T10:26:16.095Z,982.1
2023-03-31T10:27:20.009Z,982.1
2023-03-31T10:28:21.211Z,982.1
2023-03-31T10:29:22.177Z,982.1
2023-03-31T10:30:23.346Z,982.1
2023-03-31T10:31:24.568Z,982.1
2023-03-31T10:32:25.873Z,982.1
2023-03-31T10:33:27.235Z,982.1
2023-03-31T10:34:28.306Z,982.1
2023-03-31T10:35:29.487Z,982.1
2023-03-31T10:36:30.647Z,982
2023-03-31T10:37:31.642Z,982
2023-03-31T10:38:32.777Z,982
2023-03-31T10:39:33.937Z,982
2023-03-31T10:40:35.164Z,982
2023-03-31T10:41:36.374Z,982
2023-03-31T10:42:37.536Z,982
2023-03-31T10:43:38.700Z,982
2023-03-31T10:44:39.867Z,981.9
2023-03-31T10:45:40.640Z,981.9
2023-03-31T10:46:41.848Z,981.9
2023-03-31T10:47:43.167Z,981.9
2023-03-31T10:48:44.376Z,981.9
2023-03-31T10:49:45.836Z,981.8
2023-03-31T10:50:47.000Z,981.8
2023-03-31T10:51:48.166Z,981.8
2023-03-31T10:52:49.360Z,981.8
2023-03-31T10:53:50.563Z,981.8
2023-03-31T10:54:51.728Z,981.8
2023-03-31T10:55:52.747Z,981.7
2023-03-31T10:56:54.704Z,981.7
2023-03-31T10:57:55.867Z,981.7
2023-03-31T10:59:06.523Z,981.7
2023-03-31T11:00:07.799Z,981.7
2023-03-31T11:01:08.790Z,981.7
2023-03-31T11:02:09.927Z,981.7
2023-03-31T11:03:11.345Z,981.7
2023-03-31T11:04:12.657Z,981.7
2023-03-31T11:05:13.891Z,981.7
2023-03-31T11:06:15.335Z,981.7
2023-03-31T11:07:16.503Z,981.7
2023-03-31T11:08:20.351Z,981.7
2023-03-31T11:09:21.706Z,981.7
2023-03-31T11:10:22.674Z,981.7
2023-03-31T11:11:24.308Z,981.7
2023-03-31T11:12:25.321Z,981.7
2023-03-31T11:13:26.497Z,981.7
2023-03-31T11:14:30.947Z,981.7
2023-03-31T11:15:32.141Z,981.7
2023-03-31T11:16:33.574Z,981.7
2023-03-31T11:17:34.719Z,981.7
2023-03-31T11:18:35.897Z,981.7
2023-03-31T11:19:37.062Z,981.7
2023-03-31T11:20:38.232Z,981.7
2023-03-31T11:21:39.395Z,981.7
2023-03-31T11:22:40.700Z,981.6
2023-03-31T11:23:41.907Z,981.6
2023-03-31T11:24:43.034Z,981.6
2023-03-31T11:25:44.200Z,981.6
2023-03-31T11:26:45.202Z,981.6
2023-03-31T11:27:46.370Z,981.6
2023-03-31T11:28:47.537Z,981.5
2023-03-31T11:29:48.701Z,981.5
2023-03-31T11:30:49.871Z,981.5
2023-03-31T11:31:51.087Z,981.5
2023-03-31T11:32:52.298Z,981.4
2023-03-31T11:33:53.619Z,981.4
2023-03-31T11:34:54.588Z,981.4
2023-03-31T11:35:55.764Z,981.4
2023-03-31T11:36:56.722Z,981.4
2023-03-31T11:37:57.888Z,981.4
2023-03-31T11:38:59.082Z,981.3
2023-03-31T11:40:00.248Z,981.3
2023-03-31T11:41:01.409Z,981.3
2023-03-31T11:42:02.578Z,981.4
2023-03-31T11:43:03.738Z,981.4
2023-03-31T11:44:04.903Z,981.4
2023-03-31T11:45:06.078Z,981.3
2023-03-31T11:46:07.321Z,981.4
2023-03-31T11:47:08.966Z,981.4
2023-03-31T11:48:10.026Z,981.4
2023-03-31T11:49:11.209Z,981.3
2023-03-31T11:50:12.383Z,981.3
2023-03-31T11:51:13.347Z,981.4
2023-03-31T11:52:14.515Z,981.4
2023-03-31T11:53:15.873Z,981.4
2023-03-31T11:54:16.926Z,981.3
2023-03-31T11:55:18.102Z,981.3
2023-03-31T11:56:19.271Z,981.3
2023-03-31T11:57:20.568Z,981.3
2023-03-31T11:58:21.721Z,981.3
2023-03-31T11:59:22.890Z,981.2
2023-03-31T12:00:23.860Z,981.2
2023-03-31T12:01:25.027Z,981.2
2023-03-31T12:02:26.246Z,981.2
2023-03-31T12:03:27.517Z,981.2
2023-03-31T12:04:28.732Z,981.2
2023-03-31T12:05:29.712Z,981.1
2023-03-31T12:06:30.714Z,981.1
2023-03-31T12:07:31.874Z,981.1
2023-03-31T12:08:33.025Z,981.1
2023-03-31T12:09:34.217Z,981
2023-03-31T12:10:35.346Z,981
2023-03-31T12:11:36.518Z,981
2023-03-31T12:12:37.945Z,980.9
2023-03-31T12:13:39.113Z,980.9
2023-03-31T12:14:40.277Z,980.9
2023-03-31T12:15:41.491Z,980.9
2023-03-31T12:16:42.676Z,980.9
2023-03-31T12:17:43.860Z,980.9
2023-03-31T12:18:45.054Z,980.9
2023-03-31T12:19:46.190Z,980.9
2023-03-31T12:20:47.342Z,980.9
2023-03-31T12:21:48.506Z,980.9
2023-03-31T12:22:49.475Z,980.9
2023-03-31T12:23:50.650Z,980.9
2023-03-31T12:24:51.842Z,980.9
2023-03-31T12:25:52.977Z,980.9
2023-03-31T12:26:54.147Z,980.9
2023-03-31T12:27:55.308Z,980.9
2023-03-31T12:28:56.476Z,980.9
2023-03-31T12:29:57.603Z,980.9
2023-03-31T12:30:58.795Z,980.8
2023-03-31T12:31:59.958Z,980.9
2023-03-31T12:33:00.701Z,980.8
2023-03-31T12:34:01.840Z,980.8
2023-03-31T12:35:03.004Z,980.8
2023-03-31T12:36:04.469Z,980.8
2023-03-31T12:37:06.157Z,980.8
2023-03-31T12:38:07.317Z,980.8
2023-03-31T12:39:08.483Z,980.8
2023-03-31T12:40:09.713Z,980.8
2023-03-31T12:41:10.954Z,980.8
2023-03-31T12:42:11.928Z,980.8
2023-03-31T12:43:13.090Z,980.7
2023-03-31T12:44:14.259Z,980.7
2023-03-31T12:45:15.456Z,980.7
2023-03-31T12:46:16.666Z,980.7
2023-03-31T12:47:17.933Z,980.7
2023-03-31T12:48:19.111Z,980.6
2023-03-31T12:49:20.270Z,980.6
2023-03-31T12:50:21.446Z,980.6
2023-03-31T12:51:22.402Z,980.6
2023-03-31T12:52:23.576Z,980.6
2023-03-31T12:53:24.736Z,980.6
2023-03-31T12:54:25.906Z,980.5
2023-03-31T12:55:27.099Z,980.5
2023-03-31T12:56:28.110Z,980.5
2023-03-31T12:57:29.428Z,980.5
2023-03-31T12:58:33.425Z,980.5
2023-03-31T12:59:34.400Z,980.5
2023-03-31T13:00:35.587Z,980.5
2023-03-31T13:01:36.966Z,980.5
2023-03-31T13:02:37.961Z,980.5
2023-03-31T13:03:39.235Z,980.5
2023-03-31T13:04:40.405Z,980.5
2023-03-31T13:05:41.563Z,980.4
2023-03-31T13:06:42.732Z,980.4
2023-03-31T13:07:43.702Z,980.4
2023-03-31T13:08:44.867Z,980.4
2023-03-31T13:09:46.032Z,980.4
2023-03-31T13:10:47.288Z,980.3
2023-03-31T13:11:48.699Z,980.3
2023-03-31T13:12:49.676Z,980.3
2023-03-31T13:22:02.709Z,980.2
2023-03-31T13:23:03.880Z,980.2
2023-03-31T13:24:05.042Z,980.2